Time;durP1;ratioP1;P1;durP2;ratioP2;P2;SDS_P1;SDS_P2;PMS_P1;PMS_P2;Temp;Humidity;BMP_temperature;BMP_pressure;BME280_temperature;BME280_humidity;BME280_pressure;Samples;Min_cycle;Max_cycle;Signal;HPM_P1;HPM_P2
2022/04/01 00:01:08;;;;;;;3.25;1.00;;;1.30;99.90;;;;;;4252066;27;20495;-87
2022/04/01 00:03:10;;;;;;;3.63;0.80;;;2.00;99.90;;;;;;4250301;27;20103;-87
2022/04/01 00:05:12;;;;;;;1.77;0.80;;;2.40;99.90;;;;;;4270176;27;20054;-87
2022/04/01 00:07:14;;;;;;;1.92;0.60;;;2.60;99.90;;;;;;4270347;27;20046;-87
2022/04/01 00:09:16;;;;;;;2.33;0.68;;;1.10;99.90;;;;;;4251351;27;20043;-87
2022/04/01 00:11:18;;;;;;;1.38;0.73;;;2.80;99.90;;;;;;4252066;27;20051;-87
2022/04/01 00:13:20;;;;;;;0.90;0.75;;;2.50;99.90;;;;;;4270755;27;20091;-87
2022/04/01 00:15:21;;;;;;;1.00;0.60;;;1.40;99.90;;;;;;4251887;27;20047;-87
2022/04/01 00:17:23;;;;;;;3.20;0.90;;;1.40;99.90;;;;;;4235197;28;20492;-86
2022/04/01 00:19:24;;;;;;;4.55;0.70;;;1.80;99.90;;;;;;4234943;28;20048;-86
2022/04/01 00:21:25;;;;;;;0.70;0.50;;;1.80;99.90;;;;;;4234388;28;20078;-86
2022/04/01 00:23:27;;;;;;;1.95;0.75;;;1.60;99.90;;;;;;4234647;28;20108;-86
2022/04/01 00:25:28;;;;;;;2.95;1.00;;;2.00;99.90;;;;;;4252590;27;20106;-86
2022/04/01 00:27:33;;;;;;;2.75;0.80;;;2.40;99.90;;;;;;4252333;27;20039;-86
2022/04/01 00:29:35;;;;;;;0.88;0.60;;;1.70;99.90;;;;;;4252718;27;20042;-86
2022/04/01 00:31:36;;;;;;;1.35;0.50;;;1.60;99.90;;;;;;4250765;27;20453;-86
2022/04/01 00:33:36;;;;;;;2.30;0.70;;;1.80;99.90;;;;;;4251558;27;20043;-86
2022/04/01 00:35:38;;;;;;;0.90;0.60;;;2.40;99.90;;;;;;4251379;27;20458;-86
2022/04/01 00:37:40;;;;;;;1.83;0.82;;;2.60;99.90;;;;;;4234265;28;20073;-85
2022/04/01 00:39:41;;;;;;;2.42;0.90;;;1.40;99.90;;;;;;4251817;27;20093;-87
2022/04/01 00:41:44;;;;;;;2.08;0.80;;;1.80;99.90;;;;;;4234149;28;20043;-87
2022/04/01 00:43:46;;;;;;;1.58;0.80;;;1.90;99.90;;;;;;4252107;27;20440;-86
2022/04/01 00:45:47;;;;;;;1.83;1.00;;;1.20;99.90;;;;;;4251795;27;20039;-87
2022/04/01 00:47:47;;;;;;;1.80;0.77;;;1.40;99.90;;;;;;4251180;27;20410;-87
2022/04/01 00:49:49;;;;;;;0.70;0.63;;;1.40;99.90;;;;;;4252036;27;20099;-87
2022/04/01 00:51:51;;;;;;;2.33;0.80;;;1.50;99.90;;;;;;4251918;27;20050;-87
2022/04/01 00:53:52;;;;;;;2.45;0.60;;;2.20;99.90;;;;;;4251532;27;20072;-87
2022/04/01 00:55:53;;;;;;;1.45;0.85;;;2.70;99.90;;;;;;4252529;27;20448;-87
2022/04/01 00:57:55;;;;;;;1.02;0.70;;;2.40;99.90;;;;;;4233721;28;20127;-87
2022/04/01 00:59:56;;;;;;;1.73;0.80;;;2.00;99.90;;;;;;4233546;28;20399;-86
2022/04/01 01:01:57;;;;;;;2.50;0.80;;;2.80;99.90;;;;;;4250197;27;20219;-87
2022/04/01 01:04:21;;;;;;;1.85;0.77;;;2.70;99.90;;;;;;4250375;27;20058;-86
2022/04/01 01:06:22;;;;;;;1.17;0.70;;;2.40;99.90;;;;;;4251206;27;20055;-86
2022/04/01 01:08:22;;;;;;;3.50;0.98;;;2.00;99.90;;;;;;4233238;28;20039;-87
2022/04/01 01:10:25;;;;;;;3.08;0.80;;;1.30;99.90;;;;;;4233052;28;20047;-86
2022/04/01 01:12:26;;;;;;;1.75;0.70;;;2.80;99.90;;;;;;4250430;27;20412;-86
2022/04/01 01:14:30;;;;;;;2.45;0.75;;;1.90;99.90;;;;;;4232861;28;20069;-86
2022/04/01 01:16:32;;;;;;;2.78;0.90;;;2.70;99.90;;;;;;4250880;27;20089;-86
2022/04/01 01:18:33;;;;;;;2.40;1.10;;;1.40;99.90;;;;;;4232671;28;20054;-86
2022/04/01 01:20:36;;;;;;;1.17;0.70;;;2.60;99.90;;;;;;4250113;27;20043;-86
2022/04/01 01:22:37;;;;;;;2.05;1.00;;;1.40;99.90;;;;;;4249898;27;20054;-86
2022/04/01 01:24:41;;;;;;;4.50;1.42;;;2.80;99.90;;;;;;4232659;28;20047;-86
2022/04/01 01:26:50;;;;;;;2.80;0.80;;;1.60;99.90;;;;;;4249387;27;20039;-86
2022/04/01 01:28:52;;;;;;;2.55;1.13;;;2.40;99.90;;;;;;4231997;28;20507;-86
2022/04/01 01:30:54;;;;;;;1.83;0.80;;;2.20;99.90;;;;;;4248792;27;20043;-86
2022/04/01 01:32:56;;;;;;;9.73;1.23;;;1.40;99.90;;;;;;4250432;27;20484;-85
2022/04/01 01:34:57;;;;;;;2.30;0.80;;;2.50;99.90;;;;;;4249882;27;20043;-86
2022/04/01 01:36:58;;;;;;;3.90;0.95;;;0.90;99.90;;;;;;4249348;27;20332;-85
2022/04/01 01:38:59;;;;;;;4.78;0.90;;;1.50;99.90;;;;;;4250831;27;20147;-86
2022/04/01 01:41:02;;;;;;;1.83;0.65;;;2.90;99.90;;;;;;4250415;27;20070;-86
2022/04/01 01:43:03;;;;;;;2.67;0.95;;;2.10;99.90;;;;;;4231676;28;20043;-86
2022/04/01 01:45:05;;;;;;;3.67;1.05;;;2.90;99.90;;;;;;4248916;27;20066;-86
2022/04/01 01:47:06;;;;;;;3.45;0.90;;;1.50;99.90;;;;;;4233289;28;20058;-86
2022/04/01 01:49:08;;;;;;;2.65;0.82;;;1.40;99.90;;;;;;4235048;27;20515;-86
2022/04/01 01:55:48;;;;;;;1.38;0.80;;;1.50;99.90;;;;;;4248860;27;20129;-86
2022/04/01 01:57:51;;;;;;;1.60;0.77;;;1.80;99.90;;;;;;4233840;28;20057;-86
2022/04/01 01:59:53;;;;;;;4.85;0.88;;;1.50;99.90;;;;;;4233741;28;20048;-85
2022/04/01 02:01:55;;;;;;;3.97;0.80;;;1.50;99.90;;;;;;4238725;27;20033;-86
2022/04/01 02:04:01;;;;;;;2.03;0.93;;;2.90;99.90;;;;;;4233016;28;20043;-86
2022/04/01 02:06:05;;;;;;;2.05;0.80;;;1.50;99.90;;;;;;4232907;28;20071;-86
2022/04/01 02:08:08;;;;;;;4.10;0.80;;;1.20;99.90;;;;;;4232536;28;20076;-86
2022/04/01 02:10:11;;;;;;;5.22;1.40;;;1.80;99.90;;;;;;4233713;28;20353;-86
2022/04/01 02:12:12;;;;;;;1.13;0.60;;;3.00;99.90;;;;;;4232481;28;20054;-86
2022/04/01 02:14:14;;;;;;;3.13;0.90;;;1.50;99.90;;;;;;4233481;28;20484;-86
2022/04/01 02:16:15;;;;;;;2.63;1.13;;;1.60;99.90;;;;;;4215640;28;20543;-86
2022/04/01 02:18:17;;;;;;;2.30;1.00;;;2.40;99.90;;;;;;4215219;28;20544;-86
2022/04/01 02:20:18;;;;;;;0.95;0.63;;;1.60;99.90;;;;;;4232283;28;20051;-86
2022/04/01 02:22:19;;;;;;;4.40;1.15;;;2.50;99.90;;;;;;4232048;28;20450;-85
2022/04/01 02:24:22;;;;;;;3.75;0.73;;;1.50;99.90;;;;;;4232296;28;20039;-86
2022/04/01 02:26:23;;;;;;;2.60;0.70;;;1.60;99.90;;;;;;4231170;28;20043;-86
2022/04/01 02:28:25;;;;;;;2.47;1.00;;;1.40;99.90;;;;;;4214605;28;20051;-86
2022/04/01 02:30:25;;;;;;;2.00;0.90;;;1.70;99.90;;;;;;4233189;28;20040;-86
2022/04/01 02:32:26;;;;;;;3.97;0.60;;;1.40;99.90;;;;;;4233582;28;20119;-86
2022/04/01 02:34:27;;;;;;;1.17;0.63;;;2.90;99.90;;;;;;4232983;28;20077;-86
2022/04/01 02:36:28;;;;;;;2.25;1.33;;;1.70;99.90;;;;;;4232072;28;20039;-86
2022/04/01 02:38:30;;;;;;;1.85;0.80;;;2.90;99.90;;;;;;4239965;27;20110;-86
2022/04/01 02:40:33;;;;;;;3.10;0.82;;;2.60;99.90;;;;;;4231890;28;20148;-87
2022/04/01 02:42:34;;;;;;;2.85;0.73;;;0.80;99.90;;;;;;4248942;28;20082;-86
2022/04/01 02:44:35;;;;;;;1.98;0.80;;;1.40;99.90;;;;;;4250407;28;20543;-85
2022/04/01 02:46:46;;;;;;;1.92;0.70;;;2.60;99.90;;;;;;4249795;27;20450;-86
2022/04/01 02:48:47;;;;;;;7.45;1.25;;;2.60;99.90;;;;;;4249288;28;20112;-86
2022/04/01 02:50:49;;;;;;;5.22;0.77;;;0.60;99.90;;;;;;4249239;28;20059;-86
2022/04/01 02:52:50;;;;;;;5.60;1.88;;;2.40;99.90;;;;;;4249246;28;20049;-86
2022/04/01 02:54:52;;;;;;;5.05;1.40;;;2.20;99.90;;;;;;4232772;28;20113;-86
2022/04/01 02:56:57;;;;;;;3.40;0.50;;;1.80;99.90;;;;;;4248544;28;20580;-86
2022/04/01 02:59:00;;;;;;;5.60;1.00;;;2.20;99.90;;;;;;4231916;28;20058;-86
2022/04/01 03:01:01;;;;;;;7.03;1.02;;;1.40;99.90;;;;;;4249364;28;20044;-87
2022/04/01 03:03:06;;;;;;;4.22;0.88;;;1.30;99.90;;;;;;4249891;28;20550;-86
2022/04/01 03:05:12;;;;;;;3.80;1.77;;;1.40;99.90;;;;;;4249684;27;20040;-87
2022/04/01 03:07:14;;;;;;;1.40;0.70;;;2.80;99.90;;;;;;4232103;28;20040;-87
2022/04/01 03:09:17;;;;;;;3.15;1.02;;;1.50;99.90;;;;;;4250846;27;20035;-87
2022/04/01 03:11:21;;;;;;;3.15;0.90;;;0.80;99.90;;;;;;4250381;27;20392;-86
2022/04/01 03:13:21;;;;;;;3.05;0.50;;;1.80;99.90;;;;;;4248914;28;20043;-87
2022/04/01 03:15:24;;;;;;;3.15;0.73;;;2.30;99.90;;;;;;4250290;27;20063;-87
2022/04/01 03:17:24;;;;;;;2.15;0.77;;;1.40;99.90;;;;;;4250583;27;20051;-87
2022/04/01 03:19:26;;;;;;;7.18;1.80;;;2.80;99.90;;;;;;4249104;28;20506;-87
2022/04/01 03:21:29;;;;;;;5.55;1.00;;;1.40;99.90;;;;;;4232853;28;20071;-87
2022/04/01 03:23:30;;;;;;;3.95;1.25;;;1.90;99.90;;;;;;4248935;28;20058;-87
2022/04/01 03:25:32;;;;;;;1.48;0.70;;;2.30;99.90;;;;;;4248473;28;20050;-87
2022/04/01 03:27:34;;;;;;;8.63;0.80;;;1.40;99.90;;;;;;4248694;28;20039;-86
2022/04/01 03:29:36;;;;;;;4.45;0.93;;;1.50;99.90;;;;;;4249694;28;20065;-87
2022/04/01 03:31:37;;;;;;;2.05;0.80;;;2.90;99.90;;;;;;4249762;28;20043;-86
2022/04/01 03:33:39;;;;;;;2.75;0.80;;;2.10;99.90;;;;;;4248523;28;20083;-86
2022/04/01 03:35:41;;;;;;;4.90;0.93;;;2.60;99.90;;;;;;4250123;27;20073;-87
2022/04/01 03:37:45;;;;;;;4.20;0.90;;;2.50;99.90;;;;;;4232648;28;20040;-86
2022/04/01 03:39:47;;;;;;;4.82;0.80;;;2.30;99.90;;;;;;4252984;27;20494;-86
2022/04/01 03:41:49;;;;;;;4.57;0.85;;;3.00;99.90;;;;;;4250833;27;20046;-86
2022/04/01 03:43:51;;;;;;;4.82;0.90;;;1.40;99.90;;;;;;4250904;27;20050;-86
2022/04/01 03:45:54;;;;;;;2.20;1.05;;;2.30;99.90;;;;;;4251575;27;20078;-87
2022/04/01 03:48:09;;;;;;;4.25;0.80;;;2.20;99.90;;;;;;4235089;28;20051;-87
2022/04/01 03:50:12;;;;;;;4.47;0.90;;;1.50;99.90;;;;;;4251874;27;20081;-86
2022/04/01 03:52:14;;;;;;;5.82;1.58;;;1.50;99.90;;;;;;4252744;27;20135;-86
2022/04/01 03:54:17;;;;;;;5.25;0.77;;;2.70;99.90;;;;;;4251071;27;20051;-87
2022/04/01 03:56:23;;;;;;;2.85;0.82;;;1.80;99.90;;;;;;4251181;27;20051;-87
2022/04/01 03:58:34;;;;;;;1.40;0.60;;;2.80;99.90;;;;;;4251844;27;20078;-87
2022/04/01 04:00:38;;;;;;;3.60;0.77;;;1.60;99.90;;;;;;4251809;27;20126;-87
2022/04/01 04:02:43;;;;;;;4.70;0.90;;;2.30;99.90;;;;;;4251899;27;20041;-87
2022/04/01 04:04:50;;;;;;;4.50;0.70;;;2.80;99.90;;;;;;4236865;27;20093;-86
2022/04/01 04:06:52;;;;;;;4.95;0.70;;;2.30;99.90;;;;;;4256270;27;20038;-86
2022/04/01 04:08:57;;;;;;;3.42;1.00;;;2.50;99.90;;;;;;4235094;28;20100;-86
2022/04/01 04:10:59;;;;;;;2.28;0.77;;;1.90;99.90;;;;;;4254056;27;20475;-87
2022/04/01 04:13:04;;;;;;;3.05;0.73;;;1.90;99.90;;;;;;4236468;28;20043;-87
2022/04/01 04:15:05;;;;;;;15.52;2.28;;;1.70;99.90;;;;;;4237063;28;20043;-86
2022/04/01 04:17:11;;;;;;;0.75;0.50;;;1.60;99.90;;;;;;4255135;27;20061;-86
2022/04/01 04:19:13;;;;;;;2.53;0.60;;;1.90;99.90;;;;;;4255030;27;20070;-86
2022/04/01 04:21:27;;;;;;;5.47;0.65;;;2.50;99.90;;;;;;4254166;27;20047;-87
2022/04/01 04:23:40;;;;;;;1.98;0.77;;;2.50;99.90;;;;;;4236148;28;20063;-86
2022/04/01 04:26:11;;;;;;;3.67;0.90;;;2.30;99.90;;;;;;4238931;27;20039;-87
2022/04/01 04:28:24;;;;;;;2.47;0.80;;;0.40;99.90;;;;;;4252855;27;20043;-87
2022/04/01 04:30:33;;;;;;;1.67;0.75;;;2.90;99.90;;;;;;4234746;28;20048;-86
2022/04/01 04:32:39;;;;;;;1.02;0.60;;;2.90;99.90;;;;;;4251582;27;20068;-86
2022/04/01 04:34:46;;;;;;;2.85;0.60;;;2.60;99.90;;;;;;4252163;27;20043;-86
2022/04/01 04:36:51;;;;;;;2.83;1.00;;;1.50;99.90;;;;;;4234067;28;20079;-86
2022/04/01 04:38:55;;;;;;;3.63;0.80;;;0.60;99.90;;;;;;4251120;27;20047;-87
2022/04/01 04:40:57;;;;;;;2.03;0.93;;;1.60;99.90;;;;;;4234281;28;20039;-87
2022/04/01 04:42:58;;;;;;;2.78;1.58;;;1.60;99.90;;;;;;4251121;27;20487;-87
2022/04/01 04:44:59;;;;;;;3.25;1.00;;;2.40;99.90;;;;;;4252668;27;20057;-87
2022/04/01 04:47:05;;;;;;;1.27;0.70;;;1.50;99.90;;;;;;4233970;28;20048;-86
2022/04/01 04:49:06;;;;;;;3.72;0.80;;;1.60;99.90;;;;;;4251745;27;20490;-87
2022/04/01 04:51:09;;;;;;;2.55;0.75;;;3.00;99.90;;;;;;4252955;27;20050;-86
2022/04/01 04:53:13;;;;;;;5.00;1.85;;;3.00;99.90;;;;;;4252774;27;20071;-86
2022/04/01 04:55:20;;;;;;;4.32;0.77;;;1.60;99.90;;;;;;4234615;28;20070;-85
2022/04/01 04:57:22;;;;;;;5.85;0.80;;;1.60;99.90;;;;;;4253209;27;20043;-86
2022/04/01 04:59:24;;;;;;;2.00;0.80;;;1.60;99.90;;;;;;4252672;27;20390;-86
2022/04/01 05:01:35;;;;;;;11.02;1.85;;;2.80;99.90;;;;;;4233420;28;20043;-86
2022/04/01 05:04:10;;;;;;;3.42;1.00;;;1.60;99.90;;;;;;4252282;27;20118;-86
2022/04/01 05:06:16;;;;;;;2.70;1.15;;;1.90;99.90;;;;;;4233867;28;20043;-86
2022/04/01 05:08:52;;;;;;;6.05;1.08;;;2.30;99.90;;;;;;4251203;27;20054;-86
2022/04/01 05:11:22;;;;;;;5.43;0.85;;;1.60;99.90;;;;;;4250571;27;20054;-86
2022/04/01 05:13:32;;;;;;;1.85;0.77;;;1.70;99.90;;;;;;4234006;28;20515;-86
2022/04/01 05:15:37;;;;;;;2.90;0.60;;;1.70;99.90;;;;;;4233754;28;20054;-86
2022/04/01 05:18:06;;;;;;;3.13;0.73;;;2.30;99.90;;;;;;4234078;28;20040;-88
2022/04/01 05:20:17;;;;;;;3.08;0.73;;;1.60;99.90;;;;;;4251296;27;20047;-85
2022/04/01 05:22:26;;;;;;;1.35;0.50;;;2.30;99.90;;;;;;4233251;28;20086;-86
2022/04/01 05:24:35;;;;;;;1.60;0.85;;;1.70;99.90;;;;;;4250656;27;20141;-86
2022/04/01 05:26:40;;;;;;;;;;;1.70;99.90;;;;;;4250788;27;20411;-86
2022/04/01 05:29:02;;;;;;;2.88;1.13;;;1.70;99.90;;;;;;4250854;27;19926;-88
2022/04/01 05:31:42;;;;;;;4.93;1.90;;;1.70;99.90;;;;;;4250172;27;20514;-85
2022/04/01 05:33:57;;;;;;;1.40;0.60;;;1.70;99.90;;;;;;4214994;28;20043;-86
2022/04/01 05:36:04;;;;;;;3.65;1.25;;;2.00;99.90;;;;;;4215793;28;20126;-86
2022/04/01 05:38:09;;;;;;;2.83;0.95;;;1.70;99.90;;;;;;4187852;28;20041;-85
2022/04/01 05:40:11;;;;;;;1.48;0.63;;;1.70;99.90;;;;;;4252304;27;20087;-87
2022/04/01 05:42:13;;;;;;;2.13;0.52;;;1.70;99.90;;;;;;4250510;27;20501;-87
2022/04/01 05:44:16;;;;;;;3.50;0.80;;;1.70;99.90;;;;;;4250789;27;20333;-88
2022/04/01 05:46:22;;;;;;;2.33;0.80;;;2.70;99.90;;;;;;4251335;27;20047;-87
2022/04/01 05:48:27;;;;;;;2.35;0.93;;;1.70;99.90;;;;;;4232032;28;20474;-87
2022/04/01 05:50:28;;;;;;;2.42;0.60;;;2.80;99.90;;;;;;4231618;28;20048;-86
2022/04/01 05:52:32;;;;;;;2.25;0.80;;;2.90;99.90;;;;;;4249213;27;20039;-87
2022/04/01 05:54:34;;;;;;;7.55;0.95;;;2.10;99.90;;;;;;4249007;27;20407;-87
2022/04/01 05:56:37;;;;;;;2.60;0.80;;;3.00;99.90;;;;;;4231957;28;20536;-87
2022/04/01 05:58:40;;;;;;;2.35;0.75;;;2.80;99.90;;;;;;4248768;27;20050;-86
2022/04/01 06:01:10;;;;;;;2.55;0.77;;;1.70;99.90;;;;;;4231113;28;20048;-87
2022/04/01 06:03:40;;;;;;;1.52;0.70;;;1.70;99.90;;;;;;4249104;27;20043;-87
2022/04/01 06:05:50;;;;;;;3.60;0.93;;;1.60;99.90;;;;;;4200740;28;20488;-87
2022/04/01 06:08:17;;;;;;;1.88;0.60;;;1.80;99.90;;;;;;4215936;28;20044;-87
2022/04/01 06:10:36;;;;;;;3.13;1.35;;;1.80;99.90;;;;;;4233586;28;20399;-87
2022/04/01 06:12:58;;;;;;;3.88;0.70;;;1.80;99.90;;;;;;4216477;28;20060;-87
2022/04/01 06:15:26;;;;;;;1.50;0.80;;;1.80;99.90;;;;;;4233023;28;20047;-87
2022/04/01 06:17:54;;;;;;;2.97;0.60;;;3.10;99.90;;;;;;4236940;28;20051;-87
2022/04/01 06:19:58;;;;;;;4.43;1.02;;;1.80;99.90;;;;;;4241589;28;20043;-86
2022/04/01 06:22:06;;;;;;;3.58;0.82;;;2.20;99.90;;;;;;4239589;28;20097;-86
2022/04/01 06:24:16;;;;;;;4.13;0.77;;;2.00;99.90;;;;;;4237842;28;20403;-86
2022/04/01 06:26:18;;;;;;;0.95;0.70;;;3.00;99.90;;;;;;4216634;28;20419;-86
2022/04/01 06:28:30;;;;;;;2.28;0.60;;;1.90;99.90;;;;;;4230777;28;20170;-86
2022/04/01 06:30:32;;;;;;;3.40;1.17;;;2.00;99.90;;;;;;4231095;28;20487;-86
2022/04/01 06:32:50;;;;;;;1.60;0.63;;;2.80;99.90;;;;;;4231061;28;20557;-86
2022/04/01 06:34:55;;;;;;;2.50;0.80;;;2.00;99.90;;;;;;4231227;28;20057;-86
2022/04/01 06:37:04;;;;;;;2.45;1.00;;;2.00;99.90;;;;;;4214036;28;20498;-86
2022/04/01 06:39:07;;;;;;;1.98;0.70;;;2.00;99.90;;;;;;4234051;27;20538;-86
2022/04/01 06:41:17;;;;;;;3.03;1.05;;;2.10;99.90;;;;;;4231849;28;20487;-86
2022/04/01 06:43:19;;;;;;;4.25;0.93;;;3.40;99.90;;;;;;4231293;28;20052;-86
2022/04/01 06:45:20;;;;;;;3.95;0.88;;;2.80;99.90;;;;;;4214586;28;20048;-87
2022/04/01 06:47:23;;;;;;;3.20;0.90;;;2.20;99.90;;;;;;4215078;28;20086;-86
2022/04/01 06:49:25;;;;;;;1.58;0.70;;;1.90;99.90;;;;;;4232902;28;20124;-86
2022/04/01 06:51:26;;;;;;;2.17;0.80;;;3.30;99.90;;;;;;4232768;28;20114;-86
2022/04/01 06:53:28;;;;;;;3.47;0.95;;;1.80;99.90;;;;;;4226767;28;20047;-86
2022/04/01 06:55:30;;;;;;;3.90;1.17;;;2.50;99.90;;;;;;4204560;28;20082;-86
2022/04/01 06:57:32;;;;;;;4.90;1.02;;;2.50;99.90;;;;;;4232464;28;20075;-87
2022/04/01 06:59:34;;;;;;;2.63;0.82;;;2.30;99.90;;;;;;4214441;28;20052;-87
2022/04/01 07:01:37;;;;;;;3.03;0.73;;;3.50;99.90;;;;;;4232211;28;20105;-87
2022/04/01 07:03:39;;;;;;;5.28;0.90;;;2.40;99.90;;;;;;4212549;28;20496;-86
2022/04/01 07:05:40;;;;;;;4.60;1.95;;;2.40;99.90;;;;;;4231297;28;20044;-86
2022/04/01 07:07:42;;;;;;;1.65;0.90;;;2.50;99.90;;;;;;4197618;28;20532;-84
2022/04/01 07:09:42;;;;;;;2.45;0.85;;;2.50;99.90;;;;;;4223032;28;20044;-85
2022/04/01 07:11:43;;;;;;;2.05;0.60;;;3.50;99.90;;;;;;4232742;28;20040;-86
2022/04/01 07:13:45;;;;;;;2.45;0.73;;;3.30;99.90;;;;;;4223407;28;20428;-89
2022/04/01 07:15:47;;;;;;;2.42;0.70;;;3.10;99.50;;;;;;4200966;28;20428;-88
2022/04/01 07:17:48;;;;;;;0.60;0.40;;;2.50;99.00;;;;;;4224131;28;20086;-88
2022/04/01 07:19:50;;;;;;;0.90;0.57;;;3.60;99.40;;;;;;4234027;28;20511;-89
2022/04/01 07:21:51;;;;;;;2.38;0.60;;;3.30;99.10;;;;;;4235277;27;20036;-89
2022/04/01 07:23:52;;;;;;;2.58;1.27;;;3.70;99.50;;;;;;4252046;27;20049;-89
2022/04/01 07:25:54;;;;;;;3.47;0.98;;;2.10;98.20;;;;;;4252007;27;20078;-87
2022/04/01 07:27:55;;;;;;;3.58;0.82;;;3.80;98.70;;;;;;4258230;27;20046;-89
2022/04/01 07:29:56;;;;;;;2.22;0.90;;;3.80;98.60;;;;;;4223622;28;20527;-87
2022/04/01 07:34:21;;;;;;;1.80;1.05;;;2.60;98.50;;;;;;4267778;27;20072;-88
2022/04/01 07:36:23;;;;;;;7.55;0.93;;;2.60;98.60;;;;;;4235276;28;20078;-88
2022/04/01 07:38:24;;;;;;;1.40;0.88;;;3.70;99.10;;;;;;4235613;28;20126;-87
2022/04/01 07:40:25;;;;;;;5.00;0.90;;;2.70;99.00;;;;;;4253614;27;20409;-88
2022/04/01 07:42:28;;;;;;;2.05;0.77;;;4.00;99.20;;;;;;4235488;28;20052;-89
2022/04/01 07:44:31;;;;;;;2.97;1.08;;;3.60;99.00;;;;;;4253659;27;20406;-87
2022/04/01 07:46:32;;;;;;;3.10;0.90;;;2.60;98.70;;;;;;4256203;27;20050;-87
2022/04/01 07:48:32;;;;;;;3.00;0.93;;;1.70;98.80;;;;;;4248044;27;20051;-89
2022/04/01 07:50:33;;;;;;;2.03;0.70;;;2.70;99.00;;;;;;4260146;27;20479;-87
2022/04/01 07:52:40;;;;;;;2.83;1.08;;;2.70;98.90;;;;;;4234412;28;20540;-86
2022/04/01 07:54:43;;;;;;;3.70;1.00;;;2.60;99.00;;;;;;4251618;27;20537;-86
2022/04/01 07:56:44;;;;;;;5.05;1.52;;;3.80;99.40;;;;;;4269526;27;20119;-87
2022/04/01 07:58:46;;;;;;;2.95;1.00;;;3.80;99.80;;;;;;4251282;27;20043;-86
2022/04/01 08:00:48;;;;;;;3.88;0.90;;;2.90;99.50;;;;;;4268188;27;20410;-86
2022/04/01 08:02:54;;;;;;;1.60;0.73;;;2.80;99.30;;;;;;4269787;27;20474;-86
2022/04/01 08:04:55;;;;;;;2.97;1.10;;;2.90;99.20;;;;;;4270651;27;20053;-87
2022/04/01 08:06:58;;;;;;;1.83;0.70;;;3.90;99.40;;;;;;4270996;27;20038;-86
2022/04/01 08:08:59;;;;;;;3.67;0.70;;;3.70;99.40;;;;;;4252085;27;20126;-85
2022/04/01 08:11:00;;;;;;;1.88;0.80;;;3.40;99.60;;;;;;4251444;27;20158;-87
2022/04/01 08:13:01;;;;;;;1.13;0.80;;;3.50;99.70;;;;;;4234268;28;20039;-86
2022/04/01 08:15:03;;;;;;;4.63;0.70;;;4.10;99.90;;;;;;4250830;27;20039;-86
2022/04/01 08:17:11;;;;;;;5.15;0.70;;;2.80;99.70;;;;;;4238193;27;20043;-87
2022/04/01 08:19:12;;;;;;;2.00;0.80;;;2.80;99.70;;;;;;4233674;28;20102;-87
2022/04/01 08:21:14;;;;;;;3.63;0.80;;;3.30;99.60;;;;;;4233467;28;20039;-88
2022/04/01 08:23:16;;;;;;;3.00;0.82;;;2.10;99.30;;;;;;4248830;27;20055;-88
2022/04/01 08:25:19;;;;;;;6.70;1.35;;;4.10;99.30;;;;;;4250567;27;20043;-86
2022/04/01 08:27:20;;;;;;;4.75;0.98;;;3.00;99.20;;;;;;4233118;28;20062;-86
2022/04/01 08:29:21;;;;;;;2.65;0.73;;;3.30;98.40;;;;;;4233407;28;20044;-86
2022/04/01 08:31:22;;;;;;;1.15;0.65;;;2.30;97.80;;;;;;4251076;27;20099;-87
2022/04/01 08:33:23;;;;;;;2.83;1.10;;;3.70;97.60;;;;;;4248985;27;20039;-86
2022/04/01 08:35:25;;;;;;;2.75;0.63;;;3.40;97.80;;;;;;4251227;27;20060;-86
2022/04/01 08:37:26;;;;;;;1.00;0.75;;;3.20;97.90;;;;;;4234045;28;20173;-86
2022/04/01 08:39:28;;;;;;;1.70;0.80;;;4.20;98.20;;;;;;4234385;28;20059;-84
2022/04/01 08:41:29;;;;;;;2.47;0.77;;;3.20;97.70;;;;;;4217237;28;20044;-86
2022/04/01 08:43:33;;;;;;;1.73;0.75;;;4.80;98.10;;;;;;4234351;28;20058;-87
2022/04/01 08:45:36;;;;;;;3.58;0.82;;;4.50;97.80;;;;;;4252627;27;20487;-87
2022/04/01 08:47:38;;;;;;;2.25;1.00;;;3.40;97.40;;;;;;4235243;28;20051;-86
2022/04/01 08:49:40;;;;;;;3.08;0.73;;;3.60;97.50;;;;;;4233816;28;20565;-85
2022/04/01 08:51:41;;;;;;;1.67;0.77;;;4.40;97.20;;;;;;4235144;28;20513;-86
2022/04/01 08:53:44;;;;;;;1.95;1.13;;;3.60;97.40;;;;;;4253384;27;20039;-85
2022/04/01 08:55:47;;;;;;;2.25;0.80;;;3.10;97.00;;;;;;4233871;28;20035;-86
2022/04/01 08:57:51;;;;;;;1.35;0.73;;;4.10;97.10;;;;;;4217321;28;20040;-86
2022/04/01 08:59:52;;;;;;;1.98;0.63;;;3.90;97.00;;;;;;4249310;27;20449;-86
2022/04/01 09:02:08;;;;;;;2.40;0.98;;;3.00;96.90;;;;;;4251994;27;20047;-87
2022/04/01 09:04:29;;;;;;;3.05;1.23;;;3.90;96.80;;;;;;4259064;27;20497;-86
2022/04/01 09:06:32;;;;;;;3.60;1.00;;;5.20;97.00;;;;;;4268248;27;20086;-86
2022/04/01 09:08:35;;;;;;;2.35;1.00;;;4.00;96.70;;;;;;4267982;27;20035;-87
2022/04/01 09:11:01;;;;;;;3.70;1.42;;;5.10;96.90;;;;;;4232992;28;20473;-86
2022/04/01 09:13:06;;;;;;;1.77;0.80;;;4.00;95.90;;;;;;4248652;27;20043;-88
2022/04/01 09:15:08;;;;;;;4.65;0.98;;;5.10;96.00;;;;;;4249430;27;20036;-87
2022/04/01 09:17:11;;;;;;;0.95;0.77;;;3.80;96.10;;;;;;4250175;27;20039;-87
2022/04/01 09:19:14;;;;;;;2.50;0.80;;;4.40;96.50;;;;;;4250441;27;20054;-88
2022/04/01 09:21:15;;;;;;;3.00;0.80;;;5.40;96.90;;;;;;4232629;28;20112;-87
2022/04/01 09:23:23;;;;;;;3.75;0.60;;;4.00;96.60;;;;;;4235152;27;20059;-89
2022/04/01 09:25:24;;;;;;;2.45;0.80;;;5.10;96.00;;;;;;4216302;28;20048;-89
2022/04/01 09:27:37;;;;;;;2.25;1.00;;;4.20;95.60;;;;;;4233740;28;20040;-88
2022/04/01 09:29:38;;;;;;;2.95;1.25;;;4.80;95.10;;;;;;4233957;28;20051;-87
2022/04/01 09:31:41;;;;;;;2.58;0.82;;;4.20;95.30;;;;;;4231939;28;20035;-88
2022/04/01 09:33:50;;;;;;;1.20;0.82;;;4.20;94.80;;;;;;4232477;28;20150;-88
2022/04/01 09:35:52;;;;;;;2.35;0.80;;;5.60;95.00;;;;;;4215333;28;20108;-86
2022/04/01 09:37:55;;;;;;;0.98;0.70;;;4.40;95.30;;;;;;4216109;28;20119;-85
2022/04/01 09:39:59;;;;;;;1.20;0.77;;;4.30;95.00;;;;;;4265554;27;20055;-86
2022/04/01 09:42:09;;;;;;;2.35;0.88;;;5.40;95.20;;;;;;4247869;27;20053;-86
2022/04/01 09:44:28;;;;;;;4.47;1.00;;;5.60;95.20;;;;;;4266221;27;20121;-87
2022/04/01 09:46:29;;;;;;;1.15;0.80;;;5.50;94.70;;;;;;4247416;27;20055;-86
2022/04/01 09:48:39;;;;;;;5.90;1.30;;;4.70;94.90;;;;;;4230393;28;20042;-86
2022/04/01 09:50:44;;;;;;;2.47;0.80;;;4.60;94.70;;;;;;4229751;28;20132;-86
2022/04/01 09:52:46;;;;;;;1.95;0.80;;;4.90;94.50;;;;;;4265865;27;20041;-86
2022/04/01 09:54:53;;;;;;;1.42;0.80;;;5.50;94.70;;;;;;4229418;28;20427;-86
2022/04/01 09:56:58;;;;;;;1.35;0.70;;;5.00;93.90;;;;;;4230494;28;20055;-86
2022/04/01 09:58:59;;;;;;;4.30;1.30;;;6.20;94.20;;;;;;4267493;27;20474;-86
2022/04/01 10:01:02;;;;;;;3.08;0.73;;;;;;;;;;4231927;28;20121;-87
2022/04/01 10:03:06;;;;;;;4.45;1.50;;;5.40;93.90;;;;;;4247775;27;20088;-86
2022/04/01 10:05:08;;;;;;;5.30;1.95;;;;;;;;;;4247043;27;20125;-86
2022/04/01 10:07:09;;;;;;;2.72;0.80;;;;;;;;;;4231751;28;20138;-86
2022/04/01 10:09:11;;;;;;;4.13;0.90;;;6.40;93.30;;;;;;4230738;28;20096;-86
2022/04/01 10:11:13;;;;;;;1.80;0.70;;;;;;;;;;4265543;27;20103;-87
2022/04/01 10:13:34;;;;;;;2.97;1.20;;;5.80;93.00;;;;;;4245271;27;20098;-86
2022/04/01 10:15:36;;;;;;;1.55;0.82;;;;;;;;;;4213430;28;20581;-86
2022/04/01 10:17:39;;;;;;;2.15;0.65;;;6.80;91.20;;;;;;4229711;28;20051;-87
2022/04/01 10:19:42;;;;;;;4.15;1.05;;;;;;;;;;4216367;28;20046;-86
2022/04/01 10:21:43;;;;;;;1.65;0.80;;;;;;;;;;4221781;28;20043;-86
2022/04/01 10:24:01;;;;;;;1.25;0.70;;;6.90;89.90;;;;;;4245631;27;20051;-86
2022/04/01 10:26:07;;;;;;;0.90;0.60;;;6.50;88.40;;;;;;4240196;27;20119;-86
2022/04/01 10:28:09;;;;;;;3.20;0.88;;;;;;;;;;4231836;28;20597;-86
2022/04/01 10:30:14;;;;;;;1.42;0.63;;;6.50;85.20;;;;;;4231116;28;20067;-85
2022/04/01 10:32:25;;;;;;;1.15;0.60;;;;;;;;;;4213028;28;20119;-85
2022/04/01 10:34:27;;;;;;;1.52;0.52;;;;;;;;;;4250825;27;20134;-85
2022/04/01 10:36:28;;;;;;;0.90;0.63;;;;;;;;;;4249615;27;20066;-86
2022/04/01 10:38:33;;;;;;;1.95;0.55;;;;;;;;;;4236453;28;20100;-86
2022/04/01 10:40:38;;;;;;;4.20;0.60;;;6.50;86.60;;;;;;4218819;28;20031;-85
2022/04/01 10:42:40;;;;;;;2.17;0.52;;;7.70;83.20;;;;;;4216365;28;20139;-85
2022/04/01 10:44:58;;;;;;;1.90;1.25;;;6.70;83.80;;;;;;4214628;28;20511;-86
2022/04/01 10:46:59;;;;;;;2.15;0.70;;;6.60;85.20;;;;;;4231249;28;20043;-86
2022/04/01 10:51:37;;;;;;;3.25;0.50;;;6.60;84.20;;;;;;4254406;28;20086;-85
2022/04/01 10:53:45;;;;;;;2.05;0.70;;;6.60;82.30;;;;;;4233451;28;20089;-85
2022/04/01 10:55:46;;;;;;;1.40;0.60;;;7.20;80.10;;;;;;4232005;28;20504;-85
2022/04/01 10:57:50;;;;;;;1.10;0.60;;;6.50;81.90;;;;;;4214333;28;20040;-86
2022/04/01 10:59:51;;;;;;;4.25;0.70;;;6.60;80.80;;;;;;4265273;27;20504;-85
2022/04/01 11:01:52;;;;;;;0.95;0.52;;;7.80;82.60;;;;;;4218669;28;20043;-86
2022/04/01 11:03:53;;;;;;;2.90;0.73;;;6.60;79.90;;;;;;4221472;28;20073;-86
2022/04/01 11:06:21;;;;;;;2.92;1.00;;;7.40;80.10;;;;;;4238211;28;20047;-85
2022/04/01 11:08:23;;;;;;;0.60;0.30;;;6.50;81.50;;;;;;4218341;28;20122;-85
2022/04/01 11:10:25;;;;;;;0.88;0.50;;;6.50;80.60;;;;;;4223198;28;20048;-85